Historyczne dane pomiarowe

Dodano dane terminowe – wersja testowa.

Dane z okresu 1951-2019

Wersja bazy: 1.34 [2019-03-16, lista zmian], aktualizacja planowana na 2019-04-15

Dane meteo z obszaru Polski uzyskane na podstawie danych udostępnionych przez Instytut Meteorologii i Gospodarki Wodnej – Państwowy Instytut Badawczy.

 

Wybierz Datę:    

       

TemperaturaWilgotnośćWiatrCiśnienieOpadyŚniegCzas trwania zjawisk
 Stacja t tx tn tng RH VA  wxwx mslp ppp RRR   cm mm wxwxwxwxwxwxwx
1998-01-17 4.5 7.2 2.8- 85.3- 4.7 2.3---- 1.6------------
1998-01-18 2.8 6.0 0.4- 71.8- 4.7 3.0---- 0.0------------
1998-01-19 3.0 6.0 0.6- 81.8- 5.0 3.7---- 0.0------------
1998-01-20 3.0 5.5 1.4- 75.0- 6.0 4.3---- 1.2------------
1998-01-21 0.6 2.0 -0.6- 95.0- 8.0 4.7---- 7.5-- 1---------
1998-01-22 -0.1 0.9 -1.2- 96.3- 8.0 5.0---- 2.1-- 4---------
1998-01-23 -2.1 0.0 -3.8- 94.3- 8.0 2.3---- 0.0-- 4---------
1998-01-24 -2.9 -1.7 -4.5- 95.3- 8.0 0.0---- 0.5-- 4---------
1998-01-25 -4.6 -2.4 -6.6- 90.8- 6.3 0.0---- 0.0-- 4---------
1998-01-26 -8.6 -5.9-11.8- 91.3- 8.0 0.0---- 0.0-- 4---------
1998-01-27 -7.5 -4.9-10.4- 89.0- 2.7 0.0---- 0.0-- 4---------
1998-01-28 -4.2 -0.5 -8.3- 91.8- 5.3 3.7---- 1.8-- 4---------
1998-01-29 -4.5 0.4 -7.3- 95.0- 4.7 1.7---- 0.0-- 6---------
1998-01-30 -3.4 2.2-10.6- 94.0- 7.0 5.3---- 1.4-- 6---------
1998-01-31 -4.9 2.1 -9.1- 92.5- 2.7 4.3---- 0.6-- 10---------
1998-02-01-12.7 -3.6-17.2- 84.5- 0.0 3.0---- 0.0-- 10---------
1998-02-02 -8.9 -4.1-16.0- 89.0- 1.7 5.0---- 0.0-- 10---------
1998-02-03 -3.4 1.0 -7.5- 93.3- 5.0 6.3---- 0.0-- 10---------
1998-02-04 -1.1 3.8 -4.6- 95.3- 2.0 4.0---- 0.0-- 8---------
1998-02-05 -0.2 5.5 -3.6- 95.3- 1.0 2.0---- 0.0-- 6---------
1998-02-06 2.4 5.0 -1.2- 95.8- 8.0 2.7---- 0.0-- 4---------
1998-02-07 3.6 7.0 0.7- 93.5- 3.3 2.7---- 0.0------------
1998-02-08 3.0 5.0 1.2- 83.5- 6.3 4.0---- 0.0------------
1998-02-09 2.5 6.0 -1.0- 78.8- 6.7 0.0---- 0.0------------
1998-02-10 6.8 13.0 3.2- 56.8- 2.0 1.0---- 0.0------------
1998-02-11 6.2 13.0 1.7- 66.8- 4.7 0.7---- 0.0------------
1998-02-12 11.4 13.8 7.1- 67.0- 6.3 8.3---- 0.2------------
1998-02-13 9.5 13.0 6.6- 85.5- 8.0 7.0---- 6.5------------
1998-02-14 10.1 13.4 5.6- 88.0- 7.3 1.7---- 0.0------------
1998-02-15 11.4 13.5 9.6- 73.8- 7.3 5.0---- 2.1------------
245.0 ms

 

Źródłem pochodzenia danych jest Instytut Meteorologii i Gospodarki Wodnej – Państwowy Instytut Badawczy. Dane Instytutu Meteorologii i Gospodarki Wodnej – Państwowego Instytutu Badawczego zostały przetworzone.

Dane źródłowe można odnaleźć na stronie https://dane.imgw.pl